Portada
METAR-TAF:

METAR-TAF

Aeropuertos :

Aeropuerto Internacional Salgado Filho

Porto Alegre, Río Grande del Sur, Brasil

latitud: 30-00S, longitud: 051-11W, altitud: 3 m

Observación

El informe se hizo hace 1 hora y 1 minutos, a las 21:00 UTC
Viento 3 kt del noroeste
Temperatura 14°C
Humedad 67%
Presión 1019 hPa
Visibilidad 10 km o más
sin nubes por debajo de 1500 m y sin presencia de cumulonimbus.

METAR: SBPA 132100Z 31003KT CAVOK 14/08 Q1019

Hora: 19:01 (22:01 UTC)

Pronóstico

El informe se hizo hace 7 horas y 1 minutos, a las 15:00 UTC
Pronóstico válido del 13 a las 18 UTC al 14 a las 18 UTC
Viento 6 kt del suroeste
Visibilidad 10 km o más
sin nubes por debajo de 1500 m y sin presencia de cumulonimbus.
Probabilidad 30%
del 14 a las 08 UTC al 14 a las 11 UTC
Visibilidad: 2000 m
Cielo nuboso a una altura de 500 ft
neblina

TAF: SBPA 131500Z 1318/1418 23006KT CAVOK TX16/1318Z TN04/1409Z PROB30 1408/1411 2000 BR BKN005 RMK PDJ

Observaciones y pronósticos meteorológicos de más de 4000 aeropuertos (mensajes METAR y TAF).

Los puntos amarillos y rojos representan las estaciones disponibles.

Ponga el ratón en el punto deseado para ver el nombre de la estación.

Haga clic para ver las observaciones y los pronósticos meteorológicos.

Para cambiar el mapa : haga clic en los botones verdes con una cruz de color negro para hacer un zoom, en el botón verde con un guión para alejar o en las flechas verdes para mapas adyacentes.


METAR-TAF: